createdAt,value
2023-03-18T00:00:14.885Z,5.15
2023-03-18T00:03:00.322Z,4.55
2023-03-18T00:05:45.823Z,5.22
2023-03-18T00:08:32.295Z,4.63
2023-03-18T00:11:19.358Z,4.15
2023-03-18T00:14:05.081Z,5.65
2023-03-18T00:16:50.195Z,6.93
2023-03-18T00:22:19.396Z,5.80
2023-03-18T00:25:06.491Z,2.88
2023-03-18T00:27:51.658Z,5.65
2023-03-18T00:30:39.314Z,6.20
2023-03-18T00:33:24.274Z,4.80
2023-03-18T00:36:15.444Z,5.68
2023-03-18T00:39:02.780Z,4.35
2023-03-18T00:41:48.026Z,7.10
2023-03-18T00:44:32.683Z,7.13
2023-03-18T00:47:17.775Z,5.57
2023-03-18T00:50:03.016Z,5.57
2023-03-18T00:52:48.457Z,6.97
2023-03-18T00:55:33.740Z,7.45
2023-03-18T00:58:18.894Z,8.55
2023-03-18T01:01:05.379Z,10.25
2023-03-18T01:03:50.508Z,8.45
2023-03-18T01:06:37.133Z,6.50
2023-03-18T01:09:23.070Z,5.35
2023-03-18T01:12:09.423Z,7.32
2023-03-18T01:14:54.642Z,6.38
2023-03-18T01:17:39.795Z,5.82
2023-03-18T01:20:25.130Z,7.60
2023-03-18T01:23:12.721Z,4.20
2023-03-18T01:25:59.203Z,5.95
2023-03-18T01:28:44.948Z,7.30
2023-03-18T01:31:29.777Z,6.47
2023-03-18T01:34:18.943Z,8.00
2023-03-18T01:37:09.099Z,7.10
2023-03-18T01:39:57.679Z,7.95
2023-03-18T01:42:46.690Z,7.30
2023-03-18T01:45:33.458Z,11.40
2023-03-18T01:48:24.912Z,12.55
2023-03-18T01:51:14.497Z,8.85
2023-03-18T01:54:04.617Z,8.13
2023-03-18T01:56:51.530Z,7.40
2023-03-18T01:59:39.709Z,9.18
2023-03-18T02:02:25.614Z,9.98
2023-03-18T02:05:14.185Z,9.02
2023-03-18T02:08:00.233Z,8.20
2023-03-18T02:10:46.206Z,5.72
2023-03-18T02:13:31.603Z,7.22
2023-03-18T02:16:38.523Z,9.68
2023-03-18T02:19:44.434Z,9.35
2023-03-18T02:22:33.666Z,10.25
2023-03-18T02:25:49.907Z,9.32
2023-03-18T02:28:36.935Z,8.82
2023-03-18T02:31:22.247Z,9.57
2023-03-18T02:34:08.418Z,7.13
2023-03-18T02:36:54.630Z,9.10
2023-03-18T02:39:39.474Z,9.57
2023-03-18T02:42:31.266Z,10.07
2023-03-18T02:45:37.845Z,6.28
2023-03-18T02:48:37.030Z,7.80
2023-03-18T02:51:22.625Z,6.53
2023-03-18T02:54:10.773Z,5.50
2023-03-18T02:56:56.100Z,6.68
2023-03-18T02:59:41.320Z,7.40
2023-03-18T03:02:26.574Z,5.63
2023-03-18T03:05:11.695Z,7.95
2023-03-18T03:07:57.103Z,8.27
2023-03-18T03:10:42.291Z,5.55
2023-03-18T03:13:27.815Z,6.40
2023-03-18T03:16:15.202Z,9.27
2023-03-18T03:18:59.968Z,7.07
2023-03-18T03:21:44.921Z,6.90
2023-03-18T03:24:29.961Z,6.25
2023-03-18T03:27:15.052Z,8.13
2023-03-18T03:30:00.465Z,5.93
2023-03-18T03:32:45.846Z,7.82
2023-03-18T03:35:31.550Z,6.80
2023-03-18T03:38:16.570Z,7.93
2023-03-18T03:41:01.660Z,6.43
2023-03-18T03:43:46.663Z,7.90
2023-03-18T03:46:31.677Z,6.00
2023-03-18T03:49:18.024Z,6.93
2023-03-18T03:52:04.378Z,9.27
2023-03-18T03:54:51.826Z,7.68
2023-03-18T03:57:37.180Z,7.80
2023-03-18T04:00:23.550Z,8.20
2023-03-18T04:03:08.458Z,9.82
2023-03-18T04:05:54.107Z,7.03
2023-03-18T04:08:41.859Z,7.55
2023-03-18T04:11:26.822Z,10.00
2023-03-18T04:14:11.719Z,8.88
2023-03-18T04:16:58.937Z,6.65
2023-03-18T04:19:43.714Z,8.40
2023-03-18T04:22:29.090Z,10.30
2023-03-18T04:25:16.420Z,7.45
2023-03-18T04:28:02.182Z,8.88
2023-03-18T04:30:48.144Z,7.63
2023-03-18T04:33:35.482Z,8.15
2023-03-18T04:36:20.087Z,10.77
2023-03-18T04:39:05.917Z,10.90
2023-03-18T04:41:50.363Z,9.43
2023-03-18T04:44:35.468Z,9.10
2023-03-18T04:47:20.559Z,9.27
2023-03-18T04:50:11.581Z,10.32
2023-03-18T04:52:57.898Z,11.82
2023-03-18T04:55:46.014Z,12.60
2023-03-18T04:58:32.572Z,10.20
2023-03-18T05:01:26.693Z,10.52
2023-03-18T05:04:11.826Z,13.43
2023-03-18T05:07:03.718Z,12.23
2023-03-18T05:09:53.823Z,10.35
2023-03-18T05:12:38.470Z,14.13
2023-03-18T05:15:25.394Z,16.45
2023-03-18T05:18:13.556Z,14.68
2023-03-18T05:21:00.135Z,12.20
2023-03-18T05:23:45.755Z,12.50
2023-03-18T05:26:30.625Z,11.88
2023-03-18T05:29:15.892Z,15.57
2023-03-18T05:32:16.138Z,15.88
2023-03-18T05:35:03.224Z,12.88
2023-03-18T05:37:50.458Z,13.52
2023-03-18T05:40:36.866Z,12.50
2023-03-18T05:43:28.502Z,21.02
2023-03-18T05:46:15.995Z,22.80
2023-03-18T05:49:22.685Z,18.30
2023-03-18T05:52:30.676Z,18.92
2023-03-18T05:55:19.811Z,15.00
2023-03-18T05:58:05.351Z,11.52
2023-03-18T06:00:52.641Z,14.60
2023-03-18T06:03:37.297Z,12.98
2023-03-18T06:06:23.231Z,15.02
2023-03-18T06:09:10.246Z,13.80
2023-03-18T06:11:55.302Z,21.00
2023-03-18T06:14:40.427Z,22.13
2023-03-18T06:17:25.517Z,15.52
2023-03-18T06:20:11.177Z,21.58
2023-03-18T06:22:56.810Z,14.40
2023-03-18T06:25:46.001Z,20.65
2023-03-18T06:28:32.355Z,15.65
2023-03-18T06:31:21.243Z,16.33
2023-03-18T06:34:06.907Z,17.40
2023-03-18T06:36:54.552Z,17.23
2023-03-18T06:39:41.186Z,16.92
2023-03-18T06:42:27.836Z,17.48
2023-03-18T06:45:19.716Z,15.60
2023-03-18T06:48:11.286Z,21.40
2023-03-18T06:50:58.970Z,32.05
2023-03-18T06:53:49.389Z,21.75
2023-03-18T06:56:37.020Z,22.33
2023-03-18T06:59:30.058Z,17.50
2023-03-18T07:02:15.640Z,14.20
2023-03-18T07:05:01.323Z,16.20
2023-03-18T07:07:47.898Z,17.48
2023-03-18T07:10:32.412Z,19.25
2023-03-18T07:13:26.381Z,16.27
2023-03-18T07:16:11.583Z,15.90
2023-03-18T07:18:58.473Z,18.65
2023-03-18T07:21:43.285Z,19.52
2023-03-18T07:24:28.295Z,21.98
2023-03-18T07:27:14.211Z,18.27
2023-03-18T07:29:58.683Z,13.65
2023-03-18T07:32:45.480Z,16.67
2023-03-18T07:35:30.039Z,25.88
2023-03-18T07:38:15.061Z,26.98
2023-03-18T07:41:00.314Z,17.13
2023-03-18T07:43:45.113Z,13.00
2023-03-18T07:46:30.164Z,14.05
2023-03-18T07:49:15.151Z,12.43
2023-03-18T07:51:59.959Z,27.52
2023-03-18T07:54:44.852Z,22.38
2023-03-18T07:57:29.885Z,24.02
2023-03-18T08:00:15.067Z,17.58
2023-03-18T08:02:59.837Z,34.00
2023-03-18T08:05:44.738Z,44.53
2023-03-18T08:08:29.681Z,20.77
2023-03-18T08:11:14.783Z,20.02
2023-03-18T08:13:59.967Z,19.08
2023-03-18T08:16:44.794Z,18.90
2023-03-18T08:19:29.733Z,18.10
2023-03-18T08:22:15.314Z,14.73
2023-03-18T08:25:00.732Z,15.27
2023-03-18T08:27:45.734Z,14.55
2023-03-18T08:30:30.671Z,26.20
2023-03-18T08:33:15.535Z,23.65
2023-03-18T08:36:00.677Z,17.35
2023-03-18T08:38:45.462Z,27.27
2023-03-18T08:41:30.260Z,27.75
2023-03-18T08:44:15.875Z,21.25
2023-03-18T08:47:00.806Z,19.55
2023-03-18T08:49:45.835Z,24.70
2023-03-18T08:52:31.831Z,25.48
2023-03-18T08:55:16.552Z,42.40
2023-03-18T08:58:05.226Z,35.35
2023-03-18T09:00:50.169Z,18.95
2023-03-18T09:03:35.664Z,17.27
2023-03-18T09:06:20.839Z,18.63
2023-03-18T09:09:05.507Z,20.33
2023-03-18T09:11:50.566Z,22.73
2023-03-18T09:14:35.704Z,22.77
2023-03-18T09:17:31.995Z,30.80
2023-03-18T09:23:09.791Z,22.13
2023-03-18T09:25:54.697Z,18.45
2023-03-18T09:28:39.669Z,21.08
2023-03-18T09:31:24.524Z,23.25
2023-03-18T09:34:12.812Z,26.42
2023-03-18T09:36:58.587Z,111.47
2023-03-18T09:39:43.389Z,58.92
2023-03-18T09:42:45.589Z,27.65
2023-03-18T09:46:01.621Z,19.48
2023-03-18T09:49:15.310Z,20.33
2023-03-18T09:52:38.718Z,20.52
2023-03-18T09:55:29.525Z,16.33
2023-03-18T09:58:41.691Z,18.63
2023-03-18T10:01:27.886Z,20.05
2023-03-18T10:04:29.266Z,19.30
2023-03-18T10:07:25.171Z,18.67
2023-03-18T10:10:29.368Z,17.15
2023-03-18T10:13:22.167Z,17.70
2023-03-18T10:16:17.512Z,17.08
2023-03-18T10:19:02.848Z,18.90
2023-03-18T10:21:52.615Z,18.85
2023-03-18T10:24:47.046Z,22.42
2023-03-18T10:27:56.796Z,15.23
2023-03-18T10:31:20.653Z,27.70
2023-03-18T10:34:11.266Z,21.30
2023-03-18T10:37:12.022Z,18.92
2023-03-18T10:39:59.065Z,18.73
2023-03-18T10:42:44.943Z,22.73
2023-03-18T10:45:33.590Z,16.38
2023-03-18T10:48:27.884Z,15.80
2023-03-18T10:52:02.117Z,14.55
2023-03-18T10:54:50.160Z,13.77
2023-03-18T10:57:34.836Z,19.48
2023-03-18T11:00:32.558Z,15.55
2023-03-18T11:03:26.553Z,16.58
2023-03-18T11:06:31.565Z,13.23
2023-03-18T11:09:22.344Z,18.25
2023-03-18T11:12:18.896Z,14.48
2023-03-18T11:17:59.990Z,15.15
2023-03-18T11:20:47.108Z,15.38
2023-03-18T11:23:48.486Z,15.75
2023-03-18T11:26:45.253Z,19.15
2023-03-18T11:29:34.991Z,17.52
2023-03-18T11:32:28.036Z,15.90
2023-03-18T11:35:19.839Z,15.50
2023-03-18T11:38:06.317Z,15.35
2023-03-18T11:40:51.456Z,17.10
2023-03-18T11:43:37.502Z,14.30
2023-03-18T11:46:52.092Z,11.25
2023-03-18T11:49:36.828Z,12.68
2023-03-18T11:52:46.113Z,11.38
2023-03-18T11:55:58.491Z,10.95
2023-03-18T11:58:58.150Z,11.85
2023-03-18T12:02:05.363Z,11.38
2023-03-18T12:05:27.905Z,11.13
2023-03-18T12:08:44.896Z,11.25
2023-03-18T12:11:30.189Z,12.27
2023-03-18T12:14:27.785Z,8.77
2023-03-18T12:17:25.115Z,9.40
2023-03-18T12:20:35.543Z,8.23
2023-03-18T12:23:41.742Z,12.85
2023-03-18T12:26:51.665Z,8.77
2023-03-18T12:29:54.896Z,8.00
2023-03-18T12:32:39.933Z,8.65
2023-03-18T12:35:46.779Z,7.80
2023-03-18T12:39:03.942Z,9.88
2023-03-18T12:42:18.065Z,6.65
2023-03-18T12:45:10.142Z,7.65
2023-03-18T12:48:09.196Z,8.57
2023-03-18T12:51:01.659Z,10.15
2023-03-18T12:53:55.959Z,14.40
2023-03-18T12:56:45.279Z,8.98
2023-03-18T12:59:43.404Z,7.70
2023-03-18T13:02:28.094Z,8.48
2023-03-18T13:05:20.650Z,9.73
2023-03-18T13:08:14.445Z,8.48
2023-03-18T13:11:14.427Z,9.20
2023-03-18T13:14:06.715Z,13.82
2023-03-18T13:16:52.611Z,13.52
2023-03-18T13:19:40.748Z,10.68
2023-03-18T13:22:51.047Z,7.57
2023-03-18T13:26:08.155Z,8.32
2023-03-18T13:28:59.597Z,11.43
2023-03-18T13:32:02.970Z,12.25
2023-03-18T13:34:47.570Z,12.40
2023-03-18T13:38:09.778Z,12.25
2023-03-18T13:41:09.172Z,10.48
2023-03-18T13:43:57.830Z,9.07
2023-03-18T13:46:53.919Z,14.23
2023-03-18T13:49:39.509Z,12.65
2023-03-18T13:52:45.361Z,11.73
2023-03-18T13:55:35.259Z,11.13
2023-03-18T13:58:35.506Z,10.70
2023-03-18T14:01:23.707Z,10.82
2023-03-18T14:04:43.846Z,10.10
2023-03-18T14:07:29.002Z,14.23
2023-03-18T14:10:19.708Z,13.93
2023-03-18T14:13:28.465Z,14.82
2023-03-18T14:16:24.515Z,13.65
2023-03-18T14:19:18.468Z,11.77
2023-03-18T14:22:14.217Z,11.70
2023-03-18T14:25:17.239Z,12.35
2023-03-18T14:28:08.715Z,14.85
2023-03-18T14:30:59.908Z,13.52
2023-03-18T14:34:02.226Z,11.38
2023-03-18T14:36:53.199Z,12.77
2023-03-18T14:45:43.536Z,12.63
2023-03-18T14:51:20.657Z,12.48
2023-03-18T14:54:20.238Z,11.52
2023-03-18T14:57:05.065Z,12.43
2023-03-18T14:59:50.182Z,10.23
2023-03-18T15:02:37.709Z,10.98
2023-03-18T15:05:22.828Z,11.95
2023-03-18T15:08:12.711Z,12.82
2023-03-18T15:10:58.698Z,12.93
2023-03-18T15:13:44.245Z,9.38
2023-03-18T15:16:33.123Z,12.95
2023-03-18T15:19:19.967Z,14.45
2023-03-18T15:22:06.498Z,14.15
2023-03-18T15:24:57.192Z,14.05
2023-03-18T15:27:42.247Z,14.30
2023-03-18T15:30:33.167Z,13.13
2023-03-18T15:33:21.272Z,14.23
2023-03-18T15:36:14.408Z,11.60
2023-03-18T15:38:59.020Z,12.15
2023-03-18T15:41:44.069Z,12.23
2023-03-18T15:44:34.874Z,16.17
2023-03-18T15:47:25.750Z,14.15
2023-03-18T15:50:20.996Z,12.68
2023-03-18T15:53:14.753Z,12.88
2023-03-18T15:56:19.032Z,14.52
2023-03-18T15:59:34.269Z,16.63
2023-03-18T16:02:19.060Z,20.88
2023-03-18T16:05:26.037Z,22.50
2023-03-18T16:08:13.386Z,21.20
2023-03-18T16:11:01.691Z,29.15
2023-03-18T16:13:46.622Z,25.83
2023-03-18T16:16:32.886Z,21.65
2023-03-18T16:19:28.313Z,21.48
2023-03-18T16:22:14.740Z,26.33
2023-03-18T16:24:59.636Z,19.95
2023-03-18T16:27:49.673Z,26.75
2023-03-18T16:30:35.670Z,25.33
2023-03-18T16:33:22.660Z,23.45
2023-03-18T16:36:24.919Z,26.73
2023-03-18T16:39:21.665Z,25.50
2023-03-18T16:42:08.518Z,29.77
2023-03-18T16:44:53.240Z,28.95
2023-03-18T16:47:38.163Z,31.48
2023-03-18T16:50:27.868Z,36.22
2023-03-18T16:53:24.021Z,57.58
2023-03-18T16:56:16.132Z,46.03
2023-03-18T16:59:02.184Z,51.55
2023-03-18T17:01:46.939Z,54.33
2023-03-18T17:04:34.702Z,57.88
2023-03-18T17:07:19.633Z,53.40
2023-03-18T17:10:04.460Z,48.58
2023-03-18T17:12:53.940Z,53.85
2023-03-18T17:15:39.147Z,55.15
2023-03-18T17:18:25.224Z,68.93
2023-03-18T17:21:12.261Z,65.57
2023-03-18T17:23:58.052Z,69.97
2023-03-18T17:26:43.895Z,69.85
2023-03-18T17:29:30.092Z,76.82
2023-03-18T17:32:16.010Z,80.05
2023-03-18T17:35:00.730Z,93.65
2023-03-18T17:37:46.176Z,94.18
2023-03-18T17:40:31.168Z,96.43
2023-03-18T17:46:05.465Z,101.75
2023-03-18T17:48:51.188Z,102.65
2023-03-18T17:51:36.101Z,100.28
2023-03-18T17:54:24.722Z,95.10
2023-03-18T17:57:14.080Z,75.80
2023-03-18T17:59:58.785Z,82.85
2023-03-18T18:02:44.353Z,77.80
2023-03-18T18:05:29.372Z,68.53
2023-03-18T18:08:18.198Z,53.08
2023-03-18T18:11:23.403Z,49.25
2023-03-18T18:14:22.909Z,45.55
2023-03-18T18:17:15.354Z,45.72
2023-03-18T18:20:00.363Z,46.53
2023-03-18T18:22:47.729Z,55.72
2023-03-18T18:25:32.662Z,74.28
2023-03-18T18:28:22.325Z,90.07
2023-03-18T18:31:10.073Z,121.78
2023-03-18T18:33:55.533Z,119.28
2023-03-18T18:36:40.561Z,109.07
2023-03-18T18:39:25.182Z,88.20
2023-03-18T18:42:11.750Z,91.28
2023-03-18T18:44:56.372Z,108.43
2023-03-18T18:47:41.191Z,100.63
2023-03-18T18:50:29.429Z,104.85
2023-03-18T18:53:20.257Z,99.05
2023-03-18T18:56:21.644Z,94.93
2023-03-18T18:59:30.128Z,101.15
2023-03-18T19:02:28.790Z,128.88
2023-03-18T19:05:14.041Z,132.68
2023-03-18T19:07:59.926Z,148.70
2023-03-18T19:10:45.451Z,135.38
2023-03-18T19:13:33.055Z,137.70
2023-03-18T19:16:29.522Z,147.63
2023-03-18T19:19:18.334Z,153.80
2023-03-18T19:22:03.810Z,161.27
2023-03-18T19:24:49.437Z,145.35
2023-03-18T19:27:34.969Z,146.85
2023-03-18T19:30:22.764Z,121.35
2023-03-18T19:33:15.878Z,82.10
2023-03-18T19:36:22.535Z,72.97
2023-03-18T19:39:17.113Z,65.95
2023-03-18T19:42:02.149Z,68.03
2023-03-18T19:44:48.067Z,63.70
2023-03-18T19:47:32.676Z,60.85
2023-03-18T19:50:20.561Z,65.57
2023-03-18T19:53:15.646Z,69.88
2023-03-18T19:56:00.763Z,67.72
2023-03-18T19:58:46.128Z,65.55
2023-03-18T20:01:30.967Z,57.97
2023-03-18T20:04:18.039Z,55.13
2023-03-18T20:07:05.728Z,49.83
2023-03-18T20:09:50.886Z,59.30
2023-03-18T20:12:43.875Z,61.83
2023-03-18T20:15:29.303Z,65.20
2023-03-18T20:18:17.656Z,61.22
2023-03-18T20:21:03.327Z,58.42
2023-03-18T20:23:49.409Z,57.60
2023-03-18T20:26:34.768Z,56.92
2023-03-18T20:29:23.089Z,53.72
2023-03-18T20:32:08.038Z,47.45
2023-03-18T20:34:53.027Z,47.65
2023-03-18T20:37:38.360Z,45.05
2023-03-18T20:40:28.458Z,41.60
2023-03-18T20:43:21.698Z,43.42
2023-03-18T20:46:12.203Z,42.55
2023-03-18T20:48:57.344Z,38.45
2023-03-18T20:51:42.040Z,40.75
2023-03-18T20:54:31.078Z,37.97
2023-03-18T20:57:15.880Z,40.05
2023-03-18T21:00:01.111Z,36.28
2023-03-18T21:02:47.082Z,35.05
2023-03-18T21:05:32.333Z,33.50
2023-03-18T21:08:18.099Z,35.05
2023-03-18T21:11:03.682Z,36.20
2023-03-18T21:13:48.861Z,33.10
2023-03-18T21:16:35.125Z,31.63
2023-03-18T21:19:21.541Z,29.90
2023-03-18T21:24:51.250Z,28.45
2023-03-18T21:27:36.185Z,30.05
2023-03-18T21:30:23.274Z,29.48
2023-03-18T21:33:19.094Z,30.88
2023-03-18T21:36:04.174Z,31.20
2023-03-18T21:38:49.647Z,29.60
2023-03-18T21:41:34.960Z,30.30
2023-03-18T21:44:19.413Z,25.45
2023-03-18T21:47:04.189Z,29.13
2023-03-18T21:49:49.148Z,27.52
2023-03-18T21:52:36.890Z,29.48
2023-03-18T21:55:22.010Z,28.17
2023-03-18T21:58:31.363Z,25.90
2023-03-18T22:01:25.506Z,27.15
2023-03-18T22:04:10.799Z,27.10
2023-03-18T22:06:55.706Z,23.50
2023-03-18T22:09:42.042Z,24.70
2023-03-18T22:12:29.591Z,24.65
2023-03-18T22:15:23.595Z,23.45
2023-03-18T22:18:08.493Z,21.48
2023-03-18T22:21:00.431Z,21.70
2023-03-18T22:23:45.723Z,24.60
2023-03-18T22:26:30.399Z,24.38
2023-03-18T22:29:15.349Z,22.73
2023-03-18T22:32:00.303Z,20.92
2023-03-18T22:34:44.924Z,26.75
2023-03-18T22:37:29.923Z,23.35
2023-03-18T22:40:28.847Z,22.05
2023-03-18T22:43:37.133Z,20.83
2023-03-18T22:46:21.759Z,19.83
2023-03-18T22:49:07.572Z,21.08
2023-03-18T22:51:52.375Z,19.48
2023-03-18T22:54:37.421Z,20.88
2023-03-18T22:57:25.748Z,21.05
2023-03-18T23:00:30.136Z,22.02
2023-03-18T23:03:21.141Z,17.98
2023-03-18T23:08:51.710Z,21.15
2023-03-18T23:11:36.683Z,21.00
2023-03-18T23:14:21.576Z,20.65
2023-03-18T23:17:08.642Z,19.15
2023-03-18T23:19:54.255Z,20.70
2023-03-18T23:22:39.337Z,20.67
2023-03-18T23:25:24.182Z,22.27
2023-03-18T23:28:09.117Z,22.67
2023-03-18T23:30:54.185Z,21.70
2023-03-18T23:33:39.317Z,22.48
2023-03-18T23:36:23.867Z,23.10
2023-03-18T23:41:53.138Z,18.10
2023-03-18T23:44:38.479Z,20.45
2023-03-18T23:47:23.451Z,21.85
2023-03-18T23:50:09.307Z,19.33
2023-03-18T23:52:53.970Z,20.55
2023-03-18T23:55:39.065Z,20.77
2023-03-18T23:58:24.157Z,19.30
